Harmans, Maryland
Current Conditions -  °F | °C
As of 1:54 AM on Sunday 26 Oct 2014 (Local Time) from KBWI Reporting Station
Few Clouds Few Clouds  
Wind Chill: 56°   Ceiling: Unl
Heat Index: 56°   Visibility: 10mi
Dew Point: 44°   Wind: 5mph
Humidity: 64%   Direction: 240°WSW
Pressure: 29.66"   Gusts: NA
Location:  39.16°N, 76.7°W
Report Text: KBWI 260554Z 24004KT 10SM FEW060 13/07 A2966 RMK AO2 SLP041 T01330067 10161 20133 56019
Loading
Personal Weather Stations






























Interactive Weather Map
Tropical Storm Tracking
New forecast layout! Learn more

10-Day Weather Forecast

Advertisements
Track Severe Weather on mobile